sensor_id;sensor_type;location;lat;lon;timestamp;pressure;altitude;pressure_sealevel;temperature;humidity
65758;BME280;52495;52.208;5.158;2023-04-20T00:00:00;102391.44;;;9.15;40.37
65758;BME280;52495;52.208;5.158;2023-04-20T00:02:41;102383.69;;;9.13;40.78
65758;BME280;52495;52.208;5.158;2023-04-20T00:05:08;102382.00;;;9.17;40.08
65758;BME280;52495;52.208;5.158;2023-04-20T00:07:36;102378.66;;;9.21;39.65
65758;BME280;52495;52.208;5.158;2023-04-20T00:10:03;102379.44;;;9.14;40.36
65758;BME280;52495;52.208;5.158;2023-04-20T00:12:30;102378.38;;;9.02;40.25
65758;BME280;52495;52.208;5.158;2023-04-20T00:14:57;102374.97;;;9.02;40.67
65758;BME280;52495;52.208;5.158;2023-04-20T00:17:24;102363.84;;;9.06;40.64
65758;BME280;52495;52.208;5.158;2023-04-20T00:19:52;102366.25;;;8.93;40.29
65758;BME280;52495;52.208;5.158;2023-04-20T00:22:18;102355.81;;;8.84;40.91
65758;BME280;52495;52.208;5.158;2023-04-20T00:24:45;102353.25;;;8.84;40.82
65758;BME280;52495;52.208;5.158;2023-04-20T00:27:12;102349.00;;;8.86;40.95
65758;BME280;52495;52.208;5.158;2023-04-20T00:29:38;102348.00;;;8.78;41.53
65758;BME280;52495;52.208;5.158;2023-04-20T00:32:05;102341.03;;;8.71;41.91
65758;BME280;52495;52.208;5.158;2023-04-20T00:34:32;102337.66;;;8.75;41.90
65758;BME280;52495;52.208;5.158;2023-04-20T00:37:01;102335.84;;;8.68;41.89
65758;BME280;52495;52.208;5.158;2023-04-20T00:39:27;102334.16;;;8.70;42.29
65758;BME280;52495;52.208;5.158;2023-04-20T00:42:02;102332.25;;;8.58;42.33
65758;BME280;52495;52.208;5.158;2023-04-20T00:44:29;102321.75;;;8.47;42.89
65758;BME280;52495;52.208;5.158;2023-04-20T00:46:56;102320.19;;;8.54;42.85
65758;BME280;52495;52.208;5.158;2023-04-20T00:49:25;102308.09;;;8.48;43.31
65758;BME280;52495;52.208;5.158;2023-04-20T00:51:54;102305.56;;;8.51;43.29
65758;BME280;52495;52.208;5.158;2023-04-20T00:54:25;102303.56;;;8.36;43.60
65758;BME280;52495;52.208;5.158;2023-04-20T00:56:52;102300.16;;;8.39;44.10
65758;BME280;52495;52.208;5.158;2023-04-20T00:59:20;102296.63;;;8.30;44.68
65758;BME280;52495;52.208;5.158;2023-04-20T01:01:47;102295.81;;;8.33;44.66
65758;BME280;52495;52.208;5.158;2023-04-20T01:04:14;102283.88;;;8.37;44.79
65758;BME280;52495;52.208;5.158;2023-04-20T01:06:41;102283.69;;;8.26;44.88
65758;BME280;52495;52.208;5.158;2023-04-20T01:09:08;102281.13;;;8.26;45.07
65758;BME280;52495;52.208;5.158;2023-04-20T01:11:38;102276.94;;;8.32;45.26
65758;BME280;52495;52.208;5.158;2023-04-20T01:14:05;102275.16;;;8.30;45.56
65758;BME280;52495;52.208;5.158;2023-04-20T01:16:32;102266.69;;;8.37;45.10
65758;BME280;52495;52.208;5.158;2023-04-20T01:19:00;102265.69;;;8.27;45.95
65758;BME280;52495;52.208;5.158;2023-04-20T01:21:31;102260.69;;;8.37;46.24
65758;BME280;52495;52.208;5.158;2023-04-20T01:23:59;102250.16;;;8.21;46.14
65758;BME280;52495;52.208;5.158;2023-04-20T01:26:26;102250.25;;;8.27;46.68
65758;BME280;52495;52.208;5.158;2023-04-20T01:28:53;102252.06;;;8.33;46.46
65758;BME280;52495;52.208;5.158;2023-04-20T01:31:20;102239.22;;;8.34;46.39
65758;BME280;52495;52.208;5.158;2023-04-20T01:33:47;102244.28;;;8.28;46.84
65758;BME280;52495;52.208;5.158;2023-04-20T01:36:14;102240.91;;;8.34;47.04
65758;BME280;52495;52.208;5.158;2023-04-20T01:38:43;102238.34;;;8.34;47.28
65758;BME280;52495;52.208;5.158;2023-04-20T01:41:11;102233.75;;;8.14;47.94
65758;BME280;52495;52.208;5.158;2023-04-20T01:43:39;102228.59;;;8.11;48.44
65758;BME280;52495;52.208;5.158;2023-04-20T01:46:06;102220.06;;;8.15;48.59
65758;BME280;52495;52.208;5.158;2023-04-20T01:48:32;102221.78;;;8.15;49.16
65758;BME280;52495;52.208;5.158;2023-04-20T01:50:59;102221.00;;;8.22;49.46
65758;BME280;52495;52.208;5.158;2023-04-20T01:53:26;102219.38;;;8.26;50.18
65758;BME280;52495;52.208;5.158;2023-04-20T01:55:53;102217.53;;;8.20;50.56
65758;BME280;52495;52.208;5.158;2023-04-20T01:58:22;102215.84;;;8.19;51.16
65758;BME280;52495;52.208;5.158;2023-04-20T02:00:49;102209.81;;;8.20;51.70
65758;BME280;52495;52.208;5.158;2023-04-20T02:03:16;102208.97;;;8.21;52.16
65758;BME280;52495;52.208;5.158;2023-04-20T02:05:43;102196.06;;;8.16;53.12
65758;BME280;52495;52.208;5.158;2023-04-20T02:08:09;102194.44;;;8.23;52.97
65758;BME280;52495;52.208;5.158;2023-04-20T02:10:38;102193.53;;;8.21;53.58
65758;BME280;52495;52.208;5.158;2023-04-20T02:13:04;102194.47;;;8.25;53.64
65758;BME280;52495;52.208;5.158;2023-04-20T02:15:33;102194.38;;;8.20;54.07
65758;BME280;52495;52.208;5.158;2023-04-20T02:17:59;102183.19;;;8.15;54.49
65758;BME280;52495;52.208;5.158;2023-04-20T02:20:27;102185.19;;;8.38;54.33
65758;BME280;52495;52.208;5.158;2023-04-20T02:22:54;102179.22;;;8.39;54.87
65758;BME280;52495;52.208;5.158;2023-04-20T02:25:21;102173.28;;;8.43;54.52
65758;BME280;52495;52.208;5.158;2023-04-20T02:27:48;102171.66;;;8.49;54.45
65758;BME280;52495;52.208;5.158;2023-04-20T02:30:15;102167.44;;;8.53;54.69
65758;BME280;52495;52.208;5.158;2023-04-20T02:32:43;102164.88;;;8.55;54.50
65758;BME280;52495;52.208;5.158;2023-04-20T02:35:10;102160.63;;;8.58;54.95
65758;BME280;52495;52.208;5.158;2023-04-20T02:37:37;102152.16;;;8.65;54.95
65758;BME280;52495;52.208;5.158;2023-04-20T02:40:05;102147.84;;;8.66;54.51
65758;BME280;52495;52.208;5.158;2023-04-20T02:42:33;102147.94;;;8.74;53.89
65758;BME280;52495;52.208;5.158;2023-04-20T02:45:01;102146.28;;;8.77;53.65
65758;BME280;52495;52.208;5.158;2023-04-20T02:47:29;102137.63;;;8.71;53.67
65758;BME280;52495;52.208;5.158;2023-04-20T02:49:57;102134.22;;;8.73;54.16
65758;BME280;52495;52.208;5.158;2023-04-20T02:52:25;102131.69;;;8.78;54.03
65758;BME280;52495;52.208;5.158;2023-04-20T02:54:55;102122.22;;;8.77;53.71
65758;BME280;52495;52.208;5.158;2023-04-20T02:57:22;102125.72;;;8.82;53.80
65758;BME280;52495;52.208;5.158;2023-04-20T02:59:49;102122.19;;;8.74;54.43
65758;BME280;52495;52.208;5.158;2023-04-20T03:02:23;102118.81;;;8.78;54.11
65758;BME280;52495;52.208;5.158;2023-04-20T03:04:50;102114.53;;;8.78;54.09
65758;BME280;52495;52.208;5.158;2023-04-20T03:07:20;102105.13;;;8.84;54.23
65758;BME280;52495;52.208;5.158;2023-04-20T03:09:48;102105.97;;;8.83;54.37
65758;BME280;52495;52.208;5.158;2023-04-20T03:12:25;102101.78;;;8.91;54.15
65758;BME280;52495;52.208;5.158;2023-04-20T03:14:57;102101.81;;;8.94;54.60
65758;BME280;52495;52.208;5.158;2023-04-20T03:17:39;102095.00;;;9.02;54.58
65758;BME280;52495;52.208;5.158;2023-04-20T03:20:06;102097.50;;;8.94;54.71
65758;BME280;52495;52.208;5.158;2023-04-20T03:22:35;102090.75;;;9.03;55.66
65758;BME280;52495;52.208;5.158;2023-04-20T03:25:02;102088.16;;;9.06;55.72
65758;BME280;52495;52.208;5.158;2023-04-20T03:27:52;102083.06;;;9.10;56.60
65758;BME280;52495;52.208;5.158;2023-04-20T03:30:19;102083.03;;;9.07;57.25
65758;BME280;52495;52.208;5.158;2023-04-20T03:32:51;102075.31;;;9.07;57.65
65758;BME280;52495;52.208;5.158;2023-04-20T03:35:18;102075.34;;;9.12;57.78
65758;BME280;52495;52.208;5.158;2023-04-20T03:37:47;102074.47;;;9.08;58.65
65758;BME280;52495;52.208;5.158;2023-04-20T03:40:14;102082.28;;;9.22;59.32
65758;BME280;52495;52.208;5.158;2023-04-20T03:42:40;102077.16;;;9.22;59.13
65758;BME280;52495;52.208;5.158;2023-04-20T03:45:08;102085.75;;;9.21;60.02
65758;BME280;52495;52.208;5.158;2023-04-20T03:47:35;102082.31;;;9.24;60.55
65758;BME280;52495;52.208;5.158;2023-04-20T03:50:02;102084.03;;;9.20;61.89
65758;BME280;52495;52.208;5.158;2023-04-20T03:52:29;102075.47;;;9.26;62.72
65758;BME280;52495;52.208;5.158;2023-04-20T03:55:01;102066.88;;;9.24;63.57
65758;BME280;52495;52.208;5.158;2023-04-20T03:57:28;102066.03;;;9.30;64.53
65758;BME280;52495;52.208;5.158;2023-04-20T03:59:55;102063.47;;;9.28;64.02
65758;BME280;52495;52.208;5.158;2023-04-20T04:02:24;102066.91;;;9.33;64.76
65758;BME280;52495;52.208;5.158;2023-04-20T04:04:51;102061.81;;;9.41;65.23
65758;BME280;52495;52.208;5.158;2023-04-20T04:07:20;102057.53;;;9.40;65.57
65758;BME280;52495;52.208;5.158;2023-04-20T04:09:48;102053.22;;;9.36;65.82
65758;BME280;52495;52.208;5.158;2023-04-20T04:12:16;102056.69;;;9.38;65.97
65758;BME280;52495;52.208;5.158;2023-04-20T04:14:43;102052.38;;;9.37;66.05
65758;BME280;52495;52.208;5.158;2023-04-20T04:17:12;102048.84;;;9.29;66.36
65758;BME280;52495;52.208;5.158;2023-04-20T04:19:40;102042.84;;;9.30;66.50
65758;BME280;52495;52.208;5.158;2023-04-20T04:22:08;102033.41;;;9.32;66.80
65758;BME280;52495;52.208;5.158;2023-04-20T04:24:41;102035.97;;;9.29;66.57
65758;BME280;52495;52.208;5.158;2023-04-20T04:27:09;102018.81;;;9.29;66.34
65758;BME280;52495;52.208;5.158;2023-04-20T04:29:46;102022.28;;;9.36;65.34
65758;BME280;52495;52.208;5.158;2023-04-20T04:32:17;102018.00;;;9.38;65.48
65758;BME280;52495;52.208;5.158;2023-04-20T04:34:44;102020.59;;;9.44;64.83
65758;BME280;52495;52.208;5.158;2023-04-20T04:37:13;102015.47;;;9.43;65.58
65758;BME280;52495;52.208;5.158;2023-04-20T04:39:45;102013.72;;;9.37;65.20
65758;BME280;52495;52.208;5.158;2023-04-20T04:42:18;102011.97;;;9.36;66.33
65758;BME280;52495;52.208;5.158;2023-04-20T04:44:47;102010.28;;;9.39;66.49
65758;BME280;52495;52.208;5.158;2023-04-20T04:47:22;102015.38;;;9.30;66.68
65758;BME280;52495;52.208;5.158;2023-04-20T04:49:50;102000.81;;;9.38;66.50
65758;BME280;52495;52.208;5.158;2023-04-20T04:52:17;102002.53;;;9.38;65.37
65758;BME280;52495;52.208;5.158;2023-04-20T04:54:44;102004.19;;;9.31;65.82
65758;BME280;52495;52.208;5.158;2023-04-20T04:57:11;102001.66;;;9.33;64.04
65758;BME280;52495;52.208;5.158;2023-04-20T04:59:39;101999.13;;;9.39;62.53
65758;BME280;52495;52.208;5.158;2023-04-20T05:02:08;102000.75;;;9.32;62.18
65758;BME280;52495;52.208;5.158;2023-04-20T05:04:34;101999.94;;;9.35;60.25
65758;BME280;52495;52.208;5.158;2023-04-20T05:07:01;101992.22;;;9.38;58.92
65758;BME280;52495;52.208;5.158;2023-04-20T05:09:28;101998.25;;;9.37;58.86
65758;BME280;52495;52.208;5.158;2023-04-20T05:11:57;102003.41;;;9.37;57.54
65758;BME280;52495;52.208;5.158;2023-04-20T05:14:25;102005.13;;;9.38;56.32
65758;BME280;52495;52.208;5.158;2023-04-20T05:16:52;101999.91;;;9.32;56.78
65758;BME280;52495;52.208;5.158;2023-04-20T05:19:20;101999.91;;;9.32;56.88
65758;BME280;52495;52.208;5.158;2023-04-20T05:21:46;102003.25;;;9.18;57.51
65758;BME280;52495;52.208;5.158;2023-04-20T05:24:13;102009.28;;;9.22;57.21
65758;BME280;52495;52.208;5.158;2023-04-20T05:26:40;102010.16;;;9.19;57.38
65758;BME280;52495;52.208;5.158;2023-04-20T05:29:06;102008.38;;;9.10;57.71
65758;BME280;52495;52.208;5.158;2023-04-20T05:31:33;102023.91;;;9.21;57.48
65758;BME280;52495;52.208;5.158;2023-04-20T05:34:00;102010.16;;;9.19;57.53
65758;BME280;52495;52.208;5.158;2023-04-20T05:36:29;102014.41;;;9.14;58.09
65758;BME280;52495;52.208;5.158;2023-04-20T05:38:58;102006.69;;;9.17;57.87
65758;BME280;52495;52.208;5.158;2023-04-20T05:41:25;102014.38;;;9.11;56.97
65758;BME280;52495;52.208;5.158;2023-04-20T05:43:52;102007.41;;;9.01;58.15
65758;BME280;52495;52.208;5.158;2023-04-20T05:46:19;102004.88;;;9.04;58.07
65758;BME280;52495;52.208;5.158;2023-04-20T05:48:46;102008.28;;;9.01;58.40
65758;BME280;52495;52.208;5.158;2023-04-20T05:51:13;102015.13;;;8.98;59.14
65758;BME280;52495;52.208;5.158;2023-04-20T05:53:41;102012.50;;;8.94;59.62
65758;BME280;52495;52.208;5.158;2023-04-20T05:56:08;102021.97;;;8.94;59.77
65758;BME280;52495;52.208;5.158;2023-04-20T05:58:35;102003.97;;;9.00;60.14
65758;BME280;52495;52.208;5.158;2023-04-20T06:01:03;101994.56;;;9.05;60.17
65758;BME280;52495;52.208;5.158;2023-04-20T06:03:29;102004.03;;;9.08;60.09
65758;BME280;52495;52.208;5.158;2023-04-20T06:05:56;101998.88;;;9.05;59.80
65758;BME280;52495;52.208;5.158;2023-04-20T06:08:23;102007.38;;;8.99;60.32
65758;BME280;52495;52.208;5.158;2023-04-20T06:10:53;102009.19;;;9.05;59.70
65758;BME280;52495;52.208;5.158;2023-04-20T06:13:21;101996.28;;;9.03;60.31
65758;BME280;52495;52.208;5.158;2023-04-20T06:15:48;101994.56;;;9.07;60.51
65758;BME280;52495;52.208;5.158;2023-04-20T06:18:17;101996.25;;;9.00;60.52
65758;BME280;52495;52.208;5.158;2023-04-20T06:20:43;101993.66;;;8.99;60.75
65758;BME280;52495;52.208;5.158;2023-04-20T06:23:10;101985.88;;;8.92;60.92
65758;BME280;52495;52.208;5.158;2023-04-20T06:25:37;102000.56;;;9.03;61.24
65758;BME280;52495;52.208;5.158;2023-04-20T06:28:06;101994.56;;;9.04;60.75
65758;BME280;52495;52.208;5.158;2023-04-20T06:30:33;101978.22;;;9.00;61.15
65758;BME280;52495;52.208;5.158;2023-04-20T06:33:00;101988.50;;;8.99;60.40
65758;BME280;52495;52.208;5.158;2023-04-20T06:35:27;101978.25;;;9.02;59.77
65758;BME280;52495;52.208;5.158;2023-04-20T06:37:54;101979.91;;;8.98;60.16
65758;BME280;52495;52.208;5.158;2023-04-20T06:40:22;101977.28;;;8.89;60.90
65758;BME280;52495;52.208;5.158;2023-04-20T06:42:48;101979.84;;;8.89;60.35
65758;BME280;52495;52.208;5.158;2023-04-20T06:45:17;101980.69;;;8.88;60.68
65758;BME280;52495;52.208;5.158;2023-04-20T06:47:44;101979.91;;;8.98;59.99
65758;BME280;52495;52.208;5.158;2023-04-20T06:50:11;101986.81;;;9.01;60.07
65758;BME280;52495;52.208;5.158;2023-04-20T06:52:38;101985.00;;;8.87;61.04
65758;BME280;52495;52.208;5.158;2023-04-20T06:55:06;101984.09;;;8.84;61.36
65758;BME280;52495;52.208;5.158;2023-04-20T06:57:33;102002.16;;;8.85;62.02
65758;BME280;52495;52.208;5.158;2023-04-20T06:59:59;102002.84;;;8.72;63.15
65758;BME280;52495;52.208;5.158;2023-04-20T07:02:28;101992.53;;;8.65;63.33
65758;BME280;52495;52.208;5.158;2023-04-20T07:04:59;101996.78;;;8.62;64.45
65758;BME280;52495;52.208;5.158;2023-04-20T07:07:26;101992.53;;;8.65;65.21
65758;BME280;52495;52.208;5.158;2023-04-20T07:09:53;101992.31;;;8.47;66.30
65758;BME280;52495;52.208;5.158;2023-04-20T07:12:20;102000.84;;;8.43;68.33
65758;BME280;52495;52.208;5.158;2023-04-20T07:14:47;101991.31;;;8.34;69.10
65758;BME280;52495;52.208;5.158;2023-04-20T07:17:13;101990.38;;;8.29;69.52
65758;BME280;52495;52.208;5.158;2023-04-20T07:19:42;101989.56;;;8.33;71.08
65758;BME280;52495;52.208;5.158;2023-04-20T07:22:08;101994.69;;;8.28;71.62
65758;BME280;52495;52.208;5.158;2023-04-20T07:24:35;101988.84;;;8.45;71.02
65758;BME280;52495;52.208;5.158;2023-04-20T07:27:02;101986.13;;;8.31;72.49
65758;BME280;52495;52.208;5.158;2023-04-20T07:29:30;101981.72;;;8.20;73.49
65758;BME280;52495;52.208;5.158;2023-04-20T07:31:56;101990.88;;;7.95;74.32
65758;BME280;52495;52.208;5.158;2023-04-20T07:34:23;102000.31;;;7.96;75.30
65758;BME280;52495;52.208;5.158;2023-04-20T07:36:51;102013.81;;;7.81;75.88
65758;BME280;52495;52.208;5.158;2023-04-20T07:39:18;102007.06;;;7.86;77.00
65758;BME280;52495;52.208;5.158;2023-04-20T07:41:45;102005.31;;;7.87;76.82
65758;BME280;52495;52.208;5.158;2023-04-20T07:44:11;101997.41;;;7.70;78.18
65758;BME280;52495;52.208;5.158;2023-04-20T07:46:38;101999.09;;;7.66;78.81
65758;BME280;52495;52.208;5.158;2023-04-20T07:49:06;101987.91;;;7.64;79.69
65758;BME280;52495;52.208;5.158;2023-04-20T07:51:32;101990.28;;;7.49;80.44
65758;BME280;52495;52.208;5.158;2023-04-20T07:54:01;102008.31;;;7.55;80.41
65758;BME280;52495;52.208;5.158;2023-04-20T07:56:28;102002.44;;;7.62;80.55
65758;BME280;52495;52.208;5.158;2023-04-20T07:58:56;102008.41;;;7.59;81.07
65758;BME280;52495;52.208;5.158;2023-04-20T08:01:23;102012.50;;;7.47;81.85
65758;BME280;52495;52.208;5.158;2023-04-20T08:03:50;101998.72;;;7.43;81.70
65758;BME280;52495;52.208;5.158;2023-04-20T08:06:19;101993.53;;;7.38;81.60
65758;BME280;52495;52.208;5.158;2023-04-20T08:08:46;101989.50;;;7.56;82.18
65758;BME280;52495;52.208;5.158;2023-04-20T08:11:14;101986.88;;;7.51;81.11
65758;BME280;52495;52.208;5.158;2023-04-20T08:13:40;101990.78;;;7.24;83.00
65758;BME280;52495;52.208;5.158;2023-04-20T08:16:07;101984.06;;;7.34;82.34
65758;BME280;52495;52.208;5.158;2023-04-20T08:18:34;101981.69;;;7.48;81.93
65758;BME280;52495;52.208;5.158;2023-04-20T08:21:01;101974.75;;;7.42;82.05
65758;BME280;52495;52.208;5.158;2023-04-20T08:23:28;101980.69;;;7.38;82.47
65758;BME280;52495;52.208;5.158;2023-04-20T08:25:54;101973.03;;;7.41;82.31
65758;BME280;52495;52.208;5.158;2023-04-20T08:28:23;101967.94;;;7.46;81.41
65758;BME280;52495;52.208;5.158;2023-04-20T08:30:50;101966.16;;;7.40;82.28
65758;BME280;52495;52.208;5.158;2023-04-20T08:33:17;101969.72;;;7.49;82.58
65758;BME280;52495;52.208;5.158;2023-04-20T08:35:44;101964.63;;;7.55;82.20
65758;BME280;52495;52.208;5.158;2023-04-20T08:38:11;101961.28;;;7.59;82.00
65758;BME280;52495;52.208;5.158;2023-04-20T08:40:37;101965.66;;;7.66;81.95
65758;BME280;52495;52.208;5.158;2023-04-20T08:43:04;101972.69;;;7.80;81.22
65758;BME280;52495;52.208;5.158;2023-04-20T08:45:32;101962.31;;;7.72;81.84
65758;BME280;52495;52.208;5.158;2023-04-20T08:47:59;101974.41;;;7.81;80.74
65758;BME280;52495;52.208;5.158;2023-04-20T08:50:28;101974.50;;;7.90;79.25
65758;BME280;52495;52.208;5.158;2023-04-20T08:52:56;101957.34;;;7.89;79.08
65758;BME280;52495;52.208;5.158;2023-04-20T08:55:23;101957.31;;;7.84;78.86
65758;BME280;52495;52.208;5.158;2023-04-20T08:57:49;101963.28;;;7.83;80.77
65758;BME280;52495;52.208;5.158;2023-04-20T09:00:16;101956.56;;;7.93;79.77
65758;BME280;52495;52.208;5.158;2023-04-20T09:02:52;101953.09;;;7.91;78.99
65758;BME280;52495;52.208;5.158;2023-04-20T09:05:27;101955.50;;;7.75;79.96
65758;BME280;52495;52.208;5.158;2023-04-20T09:07:56;101946.09;;;7.78;79.62
65758;BME280;52495;52.208;5.158;2023-04-20T09:10:23;101951.28;;;7.82;80.83
65758;BME280;52495;52.208;5.158;2023-04-20T09:12:50;101946.28;;;7.93;79.12
65758;BME280;52495;52.208;5.158;2023-04-20T09:15:24;101936.88;;;7.97;78.21
65758;BME280;52495;52.208;5.158;2023-04-20T09:17:53;101946.19;;;7.87;79.49
65758;BME280;52495;52.208;5.158;2023-04-20T09:20:27;101937.75;;;7.97;78.95
65758;BME280;52495;52.208;5.158;2023-04-20T09:22:54;101936.28;;;8.18;78.42
65758;BME280;52495;52.208;5.158;2023-04-20T09:25:23;101939.81;;;8.29;77.51
65758;BME280;52495;52.208;5.158;2023-04-20T09:27:55;101935.59;;;8.38;76.63
65758;BME280;52495;52.208;5.158;2023-04-20T09:30:22;101953.59;;;8.38;77.30
65758;BME280;52495;52.208;5.158;2023-04-20T09:33:01;101950.25;;;8.46;76.64
65758;BME280;52495;52.208;5.158;2023-04-20T09:35:28;101947.66;;;8.46;75.90
65758;BME280;52495;52.208;5.158;2023-04-20T09:37:55;101940.72;;;8.34;77.14
65758;BME280;52495;52.208;5.158;2023-04-20T09:40:23;101927.19;;;8.53;76.54
65758;BME280;52495;52.208;5.158;2023-04-20T09:42:52;101925.66;;;8.75;74.99
65758;BME280;52495;52.208;5.158;2023-04-20T09:45:20;101923.09;;;8.78;74.54
65758;BME280;52495;52.208;5.158;2023-04-20T09:47:47;101917.94;;;8.78;75.93
65758;BME280;52495;52.208;5.158;2023-04-20T09:50:17;101917.97;;;8.81;76.21
65758;BME280;52495;52.208;5.158;2023-04-20T09:52:44;101914.66;;;8.98;72.70
65758;BME280;52495;52.208;5.158;2023-04-20T09:55:13;101922.34;;;8.91;74.67
65758;BME280;52495;52.208;5.158;2023-04-20T09:57:41;101914.66;;;8.96;73.46
65758;BME280;52495;52.208;5.158;2023-04-20T10:00:09;101909.56;;;9.05;74.20
65758;BME280;52495;52.208;5.158;2023-04-20T10:02:37;101910.47;;;9.14;74.37
65758;BME280;52495;52.208;5.158;2023-04-20T10:05:05;101908.75;;;9.16;72.00
65758;BME280;52495;52.208;5.158;2023-04-20T10:07:34;101911.34;;;9.14;73.83
65758;BME280;52495;52.208;5.158;2023-04-20T10:10:03;101903.72;;;9.33;71.86
65758;BME280;52495;52.208;5.158;2023-04-20T10:12:30;101891.69;;;9.30;72.60
65758;BME280;52495;52.208;5.158;2023-04-20T10:14:57;101888.25;;;9.36;73.41
65758;BME280;52495;52.208;5.158;2023-04-20T10:17:29;101894.28;;;9.41;72.67
65758;BME280;52495;52.208;5.158;2023-04-20T10:19:56;101889.19;;;9.53;71.93
65758;BME280;52495;52.208;5.158;2023-04-20T10:22:28;101897.78;;;9.59;71.39
65758;BME280;52495;52.208;5.158;2023-04-20T10:24:59;101872.88;;;9.54;70.63
65758;BME280;52495;52.208;5.158;2023-04-20T10:27:26;101874.59;;;9.59;70.97
65758;BME280;52495;52.208;5.158;2023-04-20T10:29:53;101868.59;;;9.67;69.74
65758;BME280;52495;52.208;5.158;2023-04-20T10:32:23;101868.66;;;9.83;69.70
65758;BME280;52495;52.208;5.158;2023-04-20T10:35:01;101870.41;;;9.90;69.36
65758;BME280;52495;52.208;5.158;2023-04-20T10:37:29;101871.25;;;9.89;69.70
65758;BME280;52495;52.208;5.158;2023-04-20T10:39:56;101868.69;;;9.94;69.40
65758;BME280;52495;52.208;5.158;2023-04-20T10:42:24;101867.88;;;10.07;70.10
65758;BME280;52495;52.208;5.158;2023-04-20T10:44:54;101866.16;;;10.23;68.70
65758;BME280;52495;52.208;5.158;2023-04-20T10:47:26;101862.69;;;10.29;68.87
65758;BME280;52495;52.208;5.158;2023-04-20T10:49:53;101875.66;;;10.47;68.65
65758;BME280;52495;52.208;5.158;2023-04-20T10:52:31;101855.81;;;10.70;66.46
65758;BME280;52495;52.208;5.158;2023-04-20T10:54:58;101859.28;;;10.69;66.73
65758;BME280;52495;52.208;5.158;2023-04-20T10:57:26;101873.91;;;10.70;65.39
65758;BME280;52495;52.208;5.158;2023-04-20T10:59:53;101856.69;;;10.72;64.13
65758;BME280;52495;52.208;5.158;2023-04-20T11:02:21;101855.84;;;10.57;65.97
65758;BME280;52495;52.208;5.158;2023-04-20T11:04:47;101852.41;;;10.51;66.93
65758;BME280;52495;52.208;5.158;2023-04-20T11:07:14;101848.97;;;10.58;65.43
65758;BME280;52495;52.208;5.158;2023-04-20T11:09:41;101847.22;;;10.63;65.28
65758;BME280;52495;52.208;5.158;2023-04-20T11:12:09;101845.50;;;10.62;64.85
65758;BME280;52495;52.208;5.158;2023-04-20T11:14:50;101842.06;;;10.60;65.28
65758;BME280;52495;52.208;5.158;2023-04-20T11:17:17;101838.63;;;10.61;65.90
65758;BME280;52495;52.208;5.158;2023-04-20T11:19:44;101835.22;;;10.59;65.42
65758;BME280;52495;52.208;5.158;2023-04-20T11:22:20;101834.31;;;10.63;65.48
65758;BME280;52495;52.208;5.158;2023-04-20T11:24:46;101825.72;;;10.70;64.61
65758;BME280;52495;52.208;5.158;2023-04-20T11:27:18;101836.00;;;10.80;63.32
65758;BME280;52495;52.208;5.158;2023-04-20T11:29:55;101826.53;;;10.82;63.87
65758;BME280;52495;52.208;5.158;2023-04-20T11:32:23;101812.69;;;11.03;64.13
65758;BME280;52495;52.208;5.158;2023-04-20T11:34:58;101815.22;;;11.20;63.81
65758;BME280;52495;52.208;5.158;2023-04-20T11:37:26;101809.94;;;11.45;61.86
65758;BME280;52495;52.208;5.158;2023-04-20T11:40:00;101801.28;;;11.49;61.85
65758;BME280;52495;52.208;5.158;2023-04-20T11:42:28;101796.94;;;11.60;61.90
65758;BME280;52495;52.208;5.158;2023-04-20T11:44:58;101793.41;;;11.67;61.81
65758;BME280;52495;52.208;5.158;2023-04-20T11:47:24;101790.84;;;11.66;59.36
65758;BME280;52495;52.208;5.158;2023-04-20T11:49:51;101798.72;;;11.44;60.16
65758;BME280;52495;52.208;5.158;2023-04-20T11:52:18;101802.28;;;11.26;62.07
65758;BME280;52495;52.208;5.158;2023-04-20T11:54:45;101808.31;;;11.22;62.21
65758;BME280;52495;52.208;5.158;2023-04-20T11:57:12;101806.63;;;11.18;61.91
65758;BME280;52495;52.208;5.158;2023-04-20T11:59:39;101815.28;;;11.01;63.29
65758;BME280;52495;52.208;5.158;2023-04-20T12:02:08;101813.56;;;11.02;62.55
65758;BME280;52495;52.208;5.158;2023-04-20T12:04:35;101805.84;;;10.99;62.76
65758;BME280;52495;52.208;5.158;2023-04-20T12:07:03;101813.59;;;10.99;62.91
65758;BME280;52495;52.208;5.158;2023-04-20T12:09:29;101798.91;;;11.02;63.12
65758;BME280;52495;52.208;5.158;2023-04-20T12:12:01;101801.47;;;11.13;61.65
65758;BME280;52495;52.208;5.158;2023-04-20T12:14:27;101792.81;;;11.19;60.85
65758;BME280;52495;52.208;5.158;2023-04-20T12:16:54;101791.94;;;11.23;61.58
65758;BME280;52495;52.208;5.158;2023-04-20T12:19:22;101792.72;;;11.39;60.32
65758;BME280;52495;52.208;5.158;2023-04-20T12:21:49;101798.72;;;11.46;60.02
65758;BME280;52495;52.208;5.158;2023-04-20T12:24:16;101802.19;;;11.46;60.06
65758;BME280;52495;52.208;5.158;2023-04-20T12:26:43;101797.91;;;11.37;60.99
65758;BME280;52495;52.208;5.158;2023-04-20T12:29:10;101794.38;;;11.54;59.73
65758;BME280;52495;52.208;5.158;2023-04-20T12:31:37;101784.00;;;11.59;60.42
65758;BME280;52495;52.208;5.158;2023-04-20T12:34:04;101777.09;;;11.61;60.84
65758;BME280;52495;52.208;5.158;2023-04-20T12:36:32;101788.25;;;11.67;58.92
65758;BME280;52495;52.208;5.158;2023-04-20T12:38:59;101785.72;;;11.57;59.66
65758;BME280;52495;52.208;5.158;2023-04-20T12:41:26;101776.31;;;11.45;59.51
65758;BME280;52495;52.208;5.158;2023-04-20T12:43:53;101779.88;;;11.25;60.82
65758;BME280;52495;52.208;5.158;2023-04-20T12:46:20;101784.22;;;11.17;60.76
65758;BME280;52495;52.208;5.158;2023-04-20T12:48:47;101785.00;;;11.34;60.43
65758;BME280;52495;52.208;5.158;2023-04-20T12:51:14;101783.31;;;11.27;60.68
65758;BME280;52495;52.208;5.158;2023-04-20T12:53:42;101790.22;;;11.25;60.97
65758;BME280;52495;52.208;5.158;2023-04-20T12:56:09;101780.69;;;11.35;60.47
65758;BME280;52495;52.208;5.158;2023-04-20T12:58:36;101785.94;;;11.18;61.12
65758;BME280;52495;52.208;5.158;2023-04-20T13:01:03;101778.22;;;11.10;61.50